createdAt,value
2022-07-29T00:00:21.577Z,302
2022-07-29T00:01:19.147Z,295
2022-07-29T00:02:05.273Z,784
2022-07-29T00:02:57.209Z,699
2022-07-29T00:03:49.007Z,576
2022-07-29T00:04:40.935Z,568
2022-07-29T00:05:32.683Z,498
2022-07-29T00:06:24.536Z,450
2022-07-29T00:07:16.400Z,420
2022-07-29T00:08:12.216Z,395
2022-07-29T00:09:00.100Z,392
2022-07-29T00:09:52.689Z,382
2022-07-29T00:10:43.813Z,378
2022-07-29T00:11:35.681Z,382
2022-07-29T00:12:27.528Z,363
2022-07-29T00:13:19.388Z,369
2022-07-29T00:14:11.252Z,359
2022-07-29T00:15:03.107Z,367
2022-07-29T00:15:55.154Z,469
2022-07-29T00:16:46.925Z,457
2022-07-29T00:17:38.640Z,422
2022-07-29T00:18:30.581Z,402
2022-07-29T00:19:22.476Z,376
2022-07-29T00:20:14.303Z,363
2022-07-29T00:21:06.181Z,355
2022-07-29T00:21:57.960Z,369
2022-07-29T00:22:49.915Z,376
2022-07-29T00:23:41.790Z,376
2022-07-29T00:24:33.646Z,378
2022-07-29T00:25:25.504Z,397
2022-07-29T00:26:17.375Z,400
2022-07-29T00:27:09.239Z,370
2022-07-29T00:28:01.111Z,364
2022-07-29T00:29:17.222Z,345
2022-07-29T00:29:44.852Z,343
2022-07-29T00:30:36.698Z,343
2022-07-29T00:31:28.559Z,352
2022-07-29T00:32:20.407Z,337
2022-07-29T00:33:12.284Z,350
2022-07-29T00:34:04.128Z,328
2022-07-29T00:34:56.013Z,339
2022-07-29T00:35:47.847Z,326
2022-07-29T00:36:39.721Z,334
2022-07-29T00:37:31.567Z,337
2022-07-29T00:38:23.456Z,326
2022-07-29T00:39:15.303Z,326
2022-07-29T00:40:07.176Z,331
2022-07-29T00:40:59.035Z,330
2022-07-29T00:41:50.904Z,320
2022-07-29T00:42:42.763Z,311
2022-07-29T00:43:34.619Z,313
2022-07-29T00:44:26.475Z,295
2022-07-29T00:45:18.337Z,317
2022-07-29T00:46:10.239Z,320
2022-07-29T00:47:02.158Z,315
2022-07-29T00:47:53.923Z,303
2022-07-29T00:48:45.890Z,308
2022-07-29T00:49:37.686Z,304
2022-07-29T00:50:29.552Z,291
2022-07-29T00:51:21.401Z,307
2022-07-29T00:52:13.725Z,315
2022-07-29T00:53:05.093Z,295
2022-07-29T00:53:56.966Z,306
2022-07-29T00:54:48.807Z,300
2022-07-29T00:55:40.682Z,296
2022-07-29T00:56:32.551Z,304
2022-07-29T00:57:24.396Z,311
2022-07-29T00:58:16.246Z,306
2022-07-29T00:59:08.043Z,314
2022-07-29T00:59:59.963Z,302
2022-07-29T01:00:51.930Z,301
2022-07-29T01:01:43.755Z,310
2022-07-29T01:02:35.661Z,324
2022-07-29T01:03:27.383Z,299
2022-07-29T01:04:19.340Z,308
2022-07-29T01:05:11.105Z,307
2022-07-29T01:06:02.970Z,328
2022-07-29T01:06:54.826Z,308
2022-07-29T01:07:46.686Z,319
2022-07-29T01:08:38.488Z,310
2022-07-29T01:09:35.051Z,319
2022-07-29T01:10:22.247Z,303
2022-07-29T01:11:14.139Z,315
2022-07-29T01:12:05.959Z,295
2022-07-29T01:12:57.838Z,314
2022-07-29T01:13:49.677Z,298
2022-07-29T01:14:41.566Z,320
2022-07-29T01:15:33.377Z,306
2022-07-29T01:16:25.287Z,306
2022-07-29T01:17:17.106Z,317
2022-07-29T01:18:08.968Z,304
2022-07-29T01:19:00.812Z,317
2022-07-29T01:19:52.678Z,312
2022-07-29T01:20:44.526Z,314
2022-07-29T01:21:36.401Z,316
2022-07-29T01:22:28.157Z,328
2022-07-29T01:23:20.113Z,302
2022-07-29T01:24:12.005Z,322
2022-07-29T01:25:03.829Z,310
2022-07-29T01:25:56.120Z,325
2022-07-29T01:26:47.539Z,355
2022-07-29T01:27:39.382Z,348
2022-07-29T01:28:31.238Z,336
2022-07-29T01:29:23.100Z,332
2022-07-29T01:30:15.591Z,348
2022-07-29T01:31:06.873Z,342
2022-07-29T01:32:00.994Z,346
2022-07-29T01:32:50.494Z,316
2022-07-29T01:33:42.350Z,314
2022-07-29T01:34:34.205Z,308
2022-07-29T01:35:26.057Z,316
2022-07-29T01:36:17.930Z,318
2022-07-29T01:37:09.799Z,323
2022-07-29T01:38:01.602Z,339
2022-07-29T01:38:53.477Z,326
2022-07-29T01:39:45.308Z,313
2022-07-29T01:40:37.181Z,335
2022-07-29T01:41:28.975Z,322
2022-07-29T01:42:20.885Z,322
2022-07-29T01:43:12.725Z,321
2022-07-29T01:44:04.582Z,312
2022-07-29T01:44:56.427Z,307
2022-07-29T01:45:48.211Z,306
2022-07-29T01:46:40.177Z,313
2022-07-29T01:47:32.000Z,312
2022-07-29T01:48:23.835Z,337
2022-07-29T01:49:15.794Z,337
2022-07-29T01:50:07.552Z,313
2022-07-29T01:50:59.408Z,312
2022-07-29T01:51:51.234Z,332
2022-07-29T01:52:43.128Z,316
2022-07-29T01:53:38.305Z,325
2022-07-29T01:54:26.810Z,352
2022-07-29T01:55:18.586Z,360
2022-07-29T01:56:10.498Z,372
2022-07-29T01:57:02.343Z,350
2022-07-29T01:57:54.202Z,355
2022-07-29T01:58:46.049Z,351
2022-07-29T01:59:37.905Z,350
2022-07-29T02:00:29.742Z,391
2022-07-29T02:01:21.659Z,388
2022-07-29T02:02:13.607Z,343
2022-07-29T02:03:05.299Z,326
2022-07-29T02:03:57.149Z,326
2022-07-29T02:04:49.024Z,330
2022-07-29T02:05:40.853Z,339
2022-07-29T02:06:32.720Z,334
2022-07-29T02:07:24.555Z,357
2022-07-29T02:08:16.419Z,386
2022-07-29T02:09:08.525Z,409
2022-07-29T02:10:00.181Z,408
2022-07-29T02:10:51.956Z,433
2022-07-29T02:11:43.842Z,406
2022-07-29T02:12:35.663Z,396
2022-07-29T02:13:27.528Z,396
2022-07-29T02:14:19.374Z,388
2022-07-29T02:15:11.228Z,360
2022-07-29T02:16:03.098Z,380
2022-07-29T02:16:54.924Z,363
2022-07-29T02:17:46.767Z,347
2022-07-29T02:18:38.561Z,359
2022-07-29T02:19:30.454Z,377
2022-07-29T02:20:22.339Z,370
2022-07-29T02:21:15.540Z,376
2022-07-29T02:22:06.019Z,375
2022-07-29T02:22:57.860Z,369
2022-07-29T02:23:51.438Z,386
2022-07-29T02:24:41.564Z,392
2022-07-29T02:25:38.071Z,397
2022-07-29T02:26:25.286Z,397
2022-07-29T02:27:17.145Z,379
2022-07-29T02:28:08.966Z,396
2022-07-29T02:29:00.834Z,397
2022-07-29T02:29:52.669Z,401
2022-07-29T02:30:44.681Z,407
2022-07-29T02:31:36.412Z,400
2022-07-29T02:32:28.154Z,380
2022-07-29T02:33:20.103Z,371
2022-07-29T02:34:12.043Z,380
2022-07-29T02:35:03.703Z,392
2022-07-29T02:35:55.643Z,387
2022-07-29T02:36:49.458Z,391
2022-07-29T02:37:39.356Z,377
2022-07-29T02:38:31.187Z,364
2022-07-29T02:39:23.047Z,367
2022-07-29T02:40:14.886Z,358
2022-07-29T02:41:06.744Z,351
2022-07-29T02:41:58.501Z,336
2022-07-29T02:42:50.463Z,347
2022-07-29T02:43:42.287Z,335
2022-07-29T02:44:34.686Z,343
2022-07-29T02:45:25.982Z,344
2022-07-29T02:46:28.449Z,317
2022-07-29T02:47:09.691Z,346
2022-07-29T02:48:01.557Z,339
2022-07-29T02:48:53.417Z,325
2022-07-29T02:49:45.244Z,348
2022-07-29T02:50:37.102Z,342
2022-07-29T02:51:44.085Z,339
2022-07-29T02:52:20.790Z,348
2022-07-29T02:53:12.658Z,390
2022-07-29T02:54:04.509Z,437
2022-07-29T02:54:56.338Z,465
2022-07-29T02:55:48.182Z,470
2022-07-29T02:56:40.043Z,449
2022-07-29T02:57:31.869Z,472
2022-07-29T02:58:23.740Z,465
2022-07-29T02:59:15.566Z,462
2022-07-29T03:00:07.394Z,452
2022-07-29T03:00:59.277Z,471
2022-07-29T03:01:51.183Z,429
2022-07-29T03:02:42.950Z,412
2022-07-29T03:03:34.806Z,394
2022-07-29T03:04:26.713Z,392
2022-07-29T03:05:18.515Z,387
2022-07-29T03:06:10.314Z,403
2022-07-29T03:07:02.178Z,391
2022-07-29T03:07:54.005Z,380
2022-07-29T03:08:45.861Z,389
2022-07-29T03:09:37.701Z,396
2022-07-29T03:10:29.553Z,408
2022-07-29T03:11:21.372Z,386
2022-07-29T03:12:13.241Z,394
2022-07-29T03:13:05.059Z,380
2022-07-29T03:13:56.904Z,382
2022-07-29T03:14:48.685Z,377
2022-07-29T03:15:40.698Z,364
2022-07-29T03:16:32.462Z,366
2022-07-29T03:17:24.299Z,375
2022-07-29T03:18:16.109Z,366
2022-07-29T03:19:07.973Z,358
2022-07-29T03:19:59.803Z,353
2022-07-29T03:20:51.671Z,347
2022-07-29T03:21:43.494Z,349
2022-07-29T03:22:35.350Z,335
2022-07-29T03:23:27.195Z,341
2022-07-29T03:24:19.467Z,342
2022-07-29T03:25:10.889Z,333
2022-07-29T03:26:02.743Z,333
2022-07-29T03:26:54.578Z,352
2022-07-29T03:27:46.438Z,339
2022-07-29T03:28:38.225Z,331
2022-07-29T03:29:33.585Z,328
2022-07-29T03:30:22.625Z,330
2022-07-29T03:31:13.902Z,325
2022-07-29T03:32:08.205Z,328
2022-07-29T03:32:58.808Z,336
2022-07-29T03:33:49.360Z,319
2022-07-29T03:34:41.212Z,331
2022-07-29T03:35:33.058Z,335
2022-07-29T03:36:24.918Z,336
2022-07-29T03:37:16.753Z,312
2022-07-29T03:38:08.564Z,324
2022-07-29T03:39:00.456Z,317
2022-07-29T03:39:52.325Z,313
2022-07-29T03:40:44.157Z,339
2022-07-29T03:41:36.022Z,394
2022-07-29T03:42:32.423Z,387
2022-07-29T03:43:19.708Z,391
2022-07-29T03:44:11.550Z,385
2022-07-29T03:45:03.336Z,418
2022-07-29T03:45:55.306Z,404
2022-07-29T03:46:47.156Z,386
2022-07-29T03:47:50.655Z,385
2022-07-29T03:48:30.796Z,408
2022-07-29T03:49:22.751Z,390
2022-07-29T03:50:14.506Z,405
2022-07-29T03:51:06.329Z,433
2022-07-29T03:51:58.189Z,470
2022-07-29T03:52:50.020Z,473
2022-07-29T03:53:41.885Z,463
2022-07-29T03:54:33.724Z,439
2022-07-29T03:55:25.585Z,436
2022-07-29T03:56:17.408Z,426
2022-07-29T03:57:09.267Z,417
2022-07-29T03:58:01.110Z,410
2022-07-29T03:58:52.957Z,414
2022-07-29T03:59:44.784Z,457
2022-07-29T04:00:36.594Z,433
2022-07-29T04:01:28.424Z,435
2022-07-29T04:02:22.986Z,458
2022-07-29T04:03:12.270Z,454
2022-07-29T04:04:04.063Z,438
2022-07-29T04:04:55.856Z,426
2022-07-29T04:05:47.711Z,405
2022-07-29T04:06:39.537Z,408
2022-07-29T04:07:31.401Z,404
2022-07-29T04:08:23.228Z,430
2022-07-29T04:09:15.086Z,440
2022-07-29T04:10:06.918Z,415
2022-07-29T04:10:58.772Z,399
2022-07-29T04:12:01.492Z,400
2022-07-29T04:12:42.469Z,406
2022-07-29T04:13:34.295Z,401
2022-07-29T04:14:26.146Z,393
2022-07-29T04:15:17.987Z,386
2022-07-29T04:16:09.903Z,405
2022-07-29T04:17:01.673Z,391
2022-07-29T04:17:53.561Z,370
2022-07-29T04:18:45.354Z,405
2022-07-29T04:19:37.216Z,395
2022-07-29T04:20:29.053Z,402
2022-07-29T04:21:20.921Z,413
2022-07-29T04:22:12.743Z,400
2022-07-29T04:23:04.605Z,411
2022-07-29T04:23:56.429Z,401
2022-07-29T04:24:48.295Z,402
2022-07-29T04:25:40.132Z,409
2022-07-29T04:26:31.968Z,409
2022-07-29T04:27:23.805Z,421
2022-07-29T04:28:15.725Z,431
2022-07-29T04:29:07.482Z,417
2022-07-29T04:29:59.343Z,421
2022-07-29T04:30:51.193Z,392
2022-07-29T04:31:43.120Z,395
2022-07-29T04:32:34.869Z,380
2022-07-29T04:33:26.726Z,376
2022-07-29T04:34:19.076Z,378
2022-07-29T04:35:10.409Z,366
2022-07-29T04:36:02.243Z,360
2022-07-29T04:36:54.101Z,390
2022-07-29T04:37:45.927Z,436
2022-07-29T04:38:37.801Z,409
2022-07-29T04:39:30.513Z,414
2022-07-29T04:40:21.469Z,414
2022-07-29T04:41:13.290Z,400
2022-07-29T04:42:05.157Z,385
2022-07-29T04:42:57.007Z,476
2022-07-29T04:43:48.756Z,457
2022-07-29T04:44:42.862Z,498
2022-07-29T04:45:32.520Z,401
2022-07-29T04:46:24.429Z,360
2022-07-29T04:47:16.200Z,342
2022-07-29T04:48:08.044Z,341
2022-07-29T04:48:59.983Z,371
2022-07-29T04:49:51.733Z,351
2022-07-29T04:50:43.575Z,342
2022-07-29T04:51:35.404Z,352
2022-07-29T04:52:27.253Z,348
2022-07-29T04:53:19.074Z,365
2022-07-29T04:54:10.942Z,335
2022-07-29T04:55:02.725Z,354
2022-07-29T04:55:54.632Z,355
2022-07-29T04:56:46.452Z,380
2022-07-29T04:57:38.318Z,419
2022-07-29T04:58:30.128Z,429
2022-07-29T04:59:21.990Z,415
2022-07-29T05:00:13.816Z,427
2022-07-29T05:01:05.746Z,427
2022-07-29T05:01:57.596Z,414
2022-07-29T05:02:49.444Z,418
2022-07-29T05:03:41.214Z,404
2022-07-29T05:04:33.061Z,392
2022-07-29T05:05:24.886Z,384
2022-07-29T05:06:16.739Z,384
2022-07-29T05:07:08.488Z,385
2022-07-29T05:08:00.418Z,399
2022-07-29T05:08:52.246Z,417
2022-07-29T05:09:44.107Z,403
2022-07-29T05:10:35.944Z,395
2022-07-29T05:11:30.580Z,372
2022-07-29T05:12:19.615Z,401
2022-07-29T05:13:11.476Z,384
2022-07-29T05:14:03.293Z,399
2022-07-29T05:14:55.146Z,392
2022-07-29T05:15:47.030Z,370
2022-07-29T05:16:38.773Z,361
2022-07-29T05:17:30.656Z,382
2022-07-29T05:18:22.512Z,379
2022-07-29T05:19:14.871Z,369
2022-07-29T05:20:06.220Z,358
2022-07-29T05:20:58.052Z,364
2022-07-29T05:21:49.891Z,352
2022-07-29T05:22:41.724Z,366
2022-07-29T05:23:33.572Z,349
2022-07-29T05:24:25.410Z,353
2022-07-29T05:25:17.265Z,349
2022-07-29T05:26:09.073Z,340
2022-07-29T05:27:00.944Z,341
2022-07-29T05:27:52.773Z,341
2022-07-29T05:28:44.632Z,346
2022-07-29T05:29:44.322Z,334
2022-07-29T05:30:28.330Z,342
2022-07-29T05:31:20.295Z,349
2022-07-29T05:32:12.026Z,351
2022-07-29T05:33:03.836Z,333
2022-07-29T05:33:55.679Z,343
2022-07-29T05:34:51.137Z,349
2022-07-29T05:35:39.368Z,348
2022-07-29T05:36:31.202Z,337
2022-07-29T05:37:23.064Z,335
2022-07-29T05:38:14.891Z,334
2022-07-29T05:39:06.759Z,332
2022-07-29T05:39:59.110Z,338
2022-07-29T05:40:50.441Z,359
2022-07-29T05:41:42.263Z,378
2022-07-29T05:42:34.122Z,403
2022-07-29T05:43:25.955Z,404
2022-07-29T05:44:18.071Z,473
2022-07-29T05:45:09.647Z,439
2022-07-29T05:46:01.570Z,430
2022-07-29T05:46:53.339Z,435
2022-07-29T05:47:45.200Z,420
2022-07-29T05:48:37.097Z,436
2022-07-29T05:49:28.850Z,489
2022-07-29T05:50:20.715Z,577
2022-07-29T05:51:12.579Z,555
2022-07-29T05:52:04.413Z,566
2022-07-29T05:52:56.273Z,553
2022-07-29T05:53:48.106Z,531
2022-07-29T05:54:39.974Z,502
2022-07-29T05:55:31.806Z,509
2022-07-29T05:56:23.656Z,486
2022-07-29T05:57:15.483Z,484
2022-07-29T05:58:07.349Z,489
2022-07-29T05:58:59.126Z,458
2022-07-29T05:59:51.067Z,446
2022-07-29T06:00:42.896Z,464
2022-07-29T06:01:34.786Z,441
2022-07-29T06:02:26.570Z,437
2022-07-29T06:03:18.452Z,402
2022-07-29T06:04:10.226Z,415
2022-07-29T06:05:02.295Z,421
2022-07-29T06:05:53.959Z,414
2022-07-29T06:06:45.803Z,401
2022-07-29T06:07:37.642Z,400
2022-07-29T06:08:29.508Z,371
2022-07-29T06:09:21.324Z,382
2022-07-29T06:10:13.177Z,366
2022-07-29T06:11:05.057Z,374
2022-07-29T06:11:56.854Z,386
2022-07-29T06:12:48.597Z,393
2022-07-29T06:13:40.535Z,408
2022-07-29T06:14:32.368Z,388
2022-07-29T06:15:24.220Z,389
2022-07-29T06:16:16.161Z,374
2022-07-29T06:17:07.924Z,395
2022-07-29T06:18:01.235Z,364
2022-07-29T06:18:51.588Z,359
2022-07-29T06:19:43.424Z,358
2022-07-29T06:20:35.274Z,375
2022-07-29T06:21:27.115Z,362
2022-07-29T06:22:18.931Z,373
2022-07-29T06:23:10.823Z,370
2022-07-29T06:24:02.668Z,362
2022-07-29T06:24:54.486Z,356
2022-07-29T06:25:46.365Z,361
2022-07-29T06:26:39.981Z,351
2022-07-29T06:27:30.041Z,386
2022-07-29T06:28:21.878Z,373
2022-07-29T06:29:13.734Z,373
2022-07-29T06:30:05.563Z,371
2022-07-29T06:30:57.455Z,366
2022-07-29T06:31:49.249Z,363
2022-07-29T06:32:43.181Z,368
2022-07-29T06:33:32.927Z,359
2022-07-29T06:34:24.778Z,587
2022-07-29T06:35:41.714Z,1239
2022-07-29T06:36:08.461Z,660
2022-07-29T06:37:00.276Z,3234
2022-07-29T06:37:52.118Z,2069
2022-07-29T06:38:49.479Z,1555
2022-07-29T06:39:35.789Z,1173
2022-07-29T06:40:27.627Z,1046
2022-07-29T06:41:19.456Z,703
2022-07-29T06:42:11.281Z,624
2022-07-29T06:43:03.120Z,571
2022-07-29T06:43:55.377Z,507
2022-07-29T06:44:46.798Z,498
2022-07-29T06:45:38.591Z,470
2022-07-29T06:46:30.541Z,460
2022-07-29T06:47:22.270Z,450
2022-07-29T06:48:14.119Z,434
2022-07-29T06:49:06.033Z,422
2022-07-29T06:49:57.787Z,423
2022-07-29T06:50:49.598Z,392
2022-07-29T06:51:41.450Z,374
2022-07-29T06:52:33.277Z,383
2022-07-29T06:53:25.119Z,405
2022-07-29T06:54:17.481Z,389
2022-07-29T06:55:08.721Z,368
2022-07-29T06:56:00.613Z,392
2022-07-29T06:56:52.460Z,386
2022-07-29T06:57:44.297Z,388
2022-07-29T06:58:36.139Z,390
2022-07-29T06:59:35.065Z,361
2022-07-29T07:00:19.811Z,381
2022-07-29T07:01:11.741Z,382
2022-07-29T07:02:03.533Z,386
2022-07-29T07:02:55.334Z,386
2022-07-29T07:03:47.157Z,378
2022-07-29T07:04:38.919Z,377
2022-07-29T07:05:30.841Z,375
2022-07-29T07:06:22.667Z,373
2022-07-29T07:07:14.528Z,373
2022-07-29T07:08:06.340Z,388
2022-07-29T07:08:58.182Z,382
2022-07-29T07:09:50.003Z,382
2022-07-29T07:10:41.846Z,356
2022-07-29T07:11:33.674Z,359
2022-07-29T07:12:25.529Z,343
2022-07-29T07:13:17.347Z,375
2022-07-29T07:14:09.128Z,364
2022-07-29T07:15:01.019Z,387
2022-07-29T07:15:52.872Z,392
2022-07-29T07:16:44.828Z,393
2022-07-29T07:17:36.556Z,370
2022-07-29T07:18:28.377Z,366
2022-07-29T07:19:20.242Z,366
2022-07-29T07:20:12.321Z,356
2022-07-29T07:21:03.931Z,402
2022-07-29T07:21:55.777Z,357
2022-07-29T07:22:47.601Z,381
2022-07-29T07:23:39.430Z,402
2022-07-29T07:24:31.276Z,565
2022-07-29T07:25:23.106Z,796
2022-07-29T07:26:14.955Z,1209
2022-07-29T07:27:06.780Z,1118
2022-07-29T07:27:58.637Z,629
2022-07-29T07:28:50.452Z,518
2022-07-29T07:29:43.519Z,516
2022-07-29T07:30:34.142Z,492
2022-07-29T07:31:26.108Z,479
2022-07-29T07:32:17.866Z,461
2022-07-29T07:33:09.642Z,430
2022-07-29T07:34:01.464Z,425
2022-07-29T07:34:53.317Z,428
2022-07-29T07:35:45.148Z,423
2022-07-29T07:36:36.992Z,411
2022-07-29T07:37:28.737Z,398
2022-07-29T07:38:20.683Z,393
2022-07-29T07:39:12.501Z,425
2022-07-29T07:40:04.280Z,419
2022-07-29T07:40:56.173Z,416
2022-07-29T07:41:48.027Z,413
2022-07-29T07:42:39.851Z,391
2022-07-29T07:43:31.714Z,396
2022-07-29T07:44:23.878Z,379
2022-07-29T07:45:16.505Z,433
2022-07-29T07:46:07.356Z,414
2022-07-29T07:46:58.967Z,414
2022-07-29T07:47:50.917Z,448
2022-07-29T07:48:42.761Z,820
2022-07-29T07:49:34.556Z,2120
2022-07-29T07:50:26.407Z,1733
2022-07-29T07:51:18.234Z,699
2022-07-29T07:52:10.092Z,563
2022-07-29T07:53:01.911Z,494
2022-07-29T07:53:53.760Z,476
2022-07-29T07:54:45.592Z,483
2022-07-29T07:56:00.434Z,479
2022-07-29T07:56:34.772Z,472
2022-07-29T07:57:21.124Z,462
2022-07-29T07:58:12.948Z,458
2022-07-29T07:59:04.815Z,491
2022-07-29T07:59:56.623Z,536
2022-07-29T08:00:48.759Z,532
2022-07-29T08:01:47.584Z,570
2022-07-29T08:02:32.217Z,603
2022-07-29T08:03:23.982Z,639
2022-07-29T08:04:16.171Z,603
2022-07-29T08:05:07.670Z,610
2022-07-29T08:05:59.525Z,571
2022-07-29T08:06:51.355Z,534
2022-07-29T08:07:43.214Z,529
2022-07-29T08:08:35.035Z,553
2022-07-29T08:09:29.412Z,604
2022-07-29T08:10:18.709Z,610
2022-07-29T08:11:10.595Z,553
2022-07-29T08:12:02.407Z,526
2022-07-29T08:12:54.302Z,490
2022-07-29T08:13:46.099Z,482
2022-07-29T08:14:37.954Z,464
2022-07-29T08:15:29.778Z,459
2022-07-29T08:16:21.654Z,417
2022-07-29T08:17:13.465Z,427
2022-07-29T08:18:08.348Z,467
2022-07-29T08:18:57.131Z,441
2022-07-29T08:19:48.924Z,621
2022-07-29T08:20:40.812Z,1092
2022-07-29T08:21:32.695Z,2986
2022-07-29T08:22:24.501Z,2079
2022-07-29T08:23:16.355Z,3317
2022-07-29T08:24:08.170Z,1932
2022-07-29T08:25:00.044Z,1370
2022-07-29T08:25:51.858Z,1364
2022-07-29T08:26:43.719Z,1283
2022-07-29T08:27:43.390Z,1189
2022-07-29T08:28:27.397Z,1160
2022-07-29T08:29:20.181Z,1328
2022-07-29T08:30:11.256Z,1312
2022-07-29T08:31:02.925Z,1368
2022-07-29T08:31:55.103Z,1368
2022-07-29T08:32:54.329Z,1390
2022-07-29T08:33:38.497Z,1334
2022-07-29T08:34:30.356Z,1390
2022-07-29T08:35:22.198Z,1330
2022-07-29T08:36:14.179Z,1312
2022-07-29T08:37:05.912Z,1261
2022-07-29T08:37:57.824Z,1330
2022-07-29T08:38:49.634Z,1277
2022-07-29T08:39:41.472Z,1324
2022-07-29T08:40:33.345Z,1316
2022-07-29T08:41:25.182Z,1346
2022-07-29T08:42:17.065Z,1273
2022-07-29T08:43:08.825Z,1293
2022-07-29T08:44:00.780Z,1384
2022-07-29T08:44:52.632Z,1332
2022-07-29T08:45:47.211Z,1229
2022-07-29T08:46:36.343Z,1165
2022-07-29T08:47:28.219Z,1052
2022-07-29T08:48:20.077Z,1112
2022-07-29T08:49:12.013Z,1088
2022-07-29T08:50:03.805Z,1005
2022-07-29T08:50:55.669Z,909
2022-07-29T08:51:53.186Z,1056
2022-07-29T08:52:39.309Z,1084
2022-07-29T08:53:31.258Z,1104
2022-07-29T08:54:23.134Z,1140
2022-07-29T08:55:14.980Z,1027
2022-07-29T08:56:06.856Z,846
2022-07-29T08:56:58.717Z,919
2022-07-29T08:57:51.940Z,808
2022-07-29T08:58:42.441Z,862
2022-07-29T08:59:34.309Z,699
2022-07-29T09:00:26.159Z,721
2022-07-29T09:01:18.112Z,784
2022-07-29T09:02:09.900Z,772
2022-07-29T09:03:01.772Z,723
2022-07-29T09:03:53.677Z,846
2022-07-29T09:04:45.496Z,639
2022-07-29T09:05:40.637Z,634
2022-07-29T09:06:29.193Z,582
2022-07-29T09:07:21.074Z,560
2022-07-29T09:08:12.952Z,521
2022-07-29T09:09:04.796Z,516
2022-07-29T09:09:56.683Z,480
2022-07-29T09:10:48.517Z,454
2022-07-29T09:11:40.389Z,446
2022-07-29T09:12:36.136Z,422
2022-07-29T09:13:24.105Z,413
2022-07-29T09:14:15.880Z,393
2022-07-29T09:15:07.817Z,388
2022-07-29T09:15:59.734Z,406
2022-07-29T09:16:53.626Z,422
2022-07-29T09:17:43.516Z,428
2022-07-29T09:18:35.250Z,436
2022-07-29T09:19:27.093Z,469
2022-07-29T09:20:18.968Z,488
2022-07-29T09:21:10.803Z,485
2022-07-29T09:22:03.515Z,477
2022-07-29T09:22:54.535Z,458
2022-07-29T09:23:46.343Z,429
2022-07-29T09:24:38.240Z,395
2022-07-29T09:25:30.120Z,357
2022-07-29T09:26:21.994Z,358
2022-07-29T09:27:13.810Z,335
2022-07-29T09:28:05.660Z,331
2022-07-29T09:28:57.502Z,351
2022-07-29T09:29:49.341Z,340
2022-07-29T09:30:41.213Z,350
2022-07-29T09:31:33.082Z,345
2022-07-29T09:32:24.910Z,347
2022-07-29T09:33:16.738Z,353
2022-07-29T09:34:08.610Z,356
2022-07-29T09:35:00.440Z,350
2022-07-29T09:35:56.358Z,373
2022-07-29T09:36:44.152Z,385
2022-07-29T09:37:36.012Z,374
2022-07-29T09:38:27.863Z,374
2022-07-29T09:39:19.611Z,366
2022-07-29T09:40:11.954Z,347
2022-07-29T09:41:06.246Z,346
2022-07-29T09:41:55.254Z,343
2022-07-29T09:42:47.112Z,353
2022-07-29T09:43:38.911Z,346
2022-07-29T09:44:30.833Z,331
2022-07-29T09:45:22.674Z,355
2022-07-29T09:46:14.557Z,340
2022-07-29T09:47:06.419Z,359
2022-07-29T09:47:58.256Z,354
2022-07-29T09:48:50.144Z,386
2022-07-29T09:49:41.950Z,370
2022-07-29T09:50:33.788Z,377
2022-07-29T09:51:37.772Z,381
2022-07-29T09:52:17.503Z,368
2022-07-29T09:53:09.295Z,377
2022-07-29T09:54:01.204Z,376
2022-07-29T09:54:53.097Z,364
2022-07-29T09:55:44.913Z,376
2022-07-29T09:56:36.785Z,359
2022-07-29T09:57:30.789Z,348
2022-07-29T09:58:20.500Z,345
2022-07-29T09:59:12.369Z,356
2022-07-29T10:00:04.196Z,347
2022-07-29T10:00:56.161Z,346
2022-07-29T10:01:47.923Z,374
2022-07-29T10:02:39.756Z,359
2022-07-29T10:03:31.841Z,351
2022-07-29T10:04:23.476Z,357
2022-07-29T10:05:15.358Z,356
2022-07-29T10:06:07.191Z,370
2022-07-29T10:07:04.209Z,352
2022-07-29T10:07:53.671Z,376
2022-07-29T10:08:42.754Z,366
2022-07-29T10:09:34.603Z,391
2022-07-29T10:10:26.457Z,386
2022-07-29T10:11:18.304Z,393
2022-07-29T10:12:10.216Z,409
2022-07-29T10:13:07.187Z,400
2022-07-29T10:13:53.945Z,425
2022-07-29T10:14:45.761Z,393
2022-07-29T10:15:37.562Z,378
2022-07-29T10:16:29.364Z,370
2022-07-29T10:17:21.218Z,375
2022-07-29T10:18:13.014Z,363
2022-07-29T10:19:04.846Z,381
2022-07-29T10:19:56.652Z,372
2022-07-29T10:20:48.469Z,379
2022-07-29T10:21:40.259Z,369
2022-07-29T10:22:52.582Z,354
2022-07-29T10:23:23.870Z,396
2022-07-29T10:24:15.715Z,383
2022-07-29T10:25:07.488Z,353
2022-07-29T10:25:59.235Z,380
2022-07-29T10:26:51.097Z,409
2022-07-29T10:27:43.032Z,373
2022-07-29T10:28:34.719Z,366
2022-07-29T10:29:26.539Z,377
2022-07-29T10:30:18.352Z,383
2022-07-29T10:31:10.220Z,414
2022-07-29T10:32:01.962Z,423
2022-07-29T10:32:54.224Z,422
2022-07-29T10:33:45.582Z,451
2022-07-29T10:34:37.409Z,417
2022-07-29T10:35:29.141Z,385
2022-07-29T10:36:21.063Z,359
2022-07-29T10:37:12.829Z,337
2022-07-29T10:38:04.661Z,325
2022-07-29T10:38:56.470Z,370
2022-07-29T10:39:49.647Z,387
2022-07-29T10:40:41.257Z,386
2022-07-29T10:41:43.650Z,359
2022-07-29T10:42:33.449Z,448
2022-07-29T10:43:15.894Z,409
2022-07-29T10:44:07.335Z,372
2022-07-29T10:44:59.098Z,357
2022-07-29T10:45:50.974Z,359
2022-07-29T10:46:42.849Z,364
2022-07-29T10:47:35.409Z,362
2022-07-29T10:48:26.403Z,353
2022-07-29T10:49:18.361Z,383
2022-07-29T10:50:16.982Z,368
2022-07-29T10:51:01.839Z,380
2022-07-29T10:51:54.075Z,405
2022-07-29T10:52:45.461Z,400
2022-07-29T10:53:37.295Z,399
2022-07-29T10:54:29.027Z,388
2022-07-29T10:55:20.920Z,399
2022-07-29T10:56:16.085Z,400
2022-07-29T10:57:04.549Z,398
2022-07-29T10:57:56.360Z,377
2022-07-29T10:58:52.644Z,368
2022-07-29T10:59:39.973Z,368
2022-07-29T11:00:31.804Z,380
2022-07-29T11:01:37.187Z,393
2022-07-29T11:02:36.472Z,429
2022-07-29T11:03:10.915Z,398
2022-07-29T11:03:59.023Z,401
2022-07-29T11:04:50.862Z,406
2022-07-29T11:05:42.691Z,426
2022-07-29T11:06:34.496Z,408
2022-07-29T11:07:26.329Z,404
2022-07-29T11:08:20.409Z,415
2022-07-29T11:09:09.952Z,400
2022-07-29T11:10:01.742Z,442
2022-07-29T11:10:53.573Z,429
2022-07-29T11:11:51.274Z,470
2022-07-29T11:12:37.204Z,572
2022-07-29T11:13:29.028Z,605
2022-07-29T11:14:26.650Z,610
2022-07-29T11:15:12.655Z,607
2022-07-29T11:16:04.475Z,589
2022-07-29T11:16:56.301Z,563
2022-07-29T11:17:52.280Z,533
2022-07-29T11:18:39.919Z,528
2022-07-29T11:19:31.753Z,510
2022-07-29T11:20:23.553Z,500
2022-07-29T11:21:15.387Z,480
2022-07-29T11:22:07.369Z,485
2022-07-29T11:22:59.037Z,473
2022-07-29T11:23:50.824Z,461
2022-07-29T11:24:50.048Z,450
2022-07-29T11:25:50.689Z,472
2022-07-29T11:26:26.291Z,443
2022-07-29T11:27:20.119Z,441
2022-07-29T11:28:09.926Z,462
2022-07-29T11:29:01.735Z,445
2022-07-29T11:29:53.694Z,428
2022-07-29T11:30:45.363Z,430
2022-07-29T11:31:37.190Z,460
2022-07-29T11:32:29.225Z,492
2022-07-29T11:33:20.823Z,508
2022-07-29T11:34:12.637Z,521
2022-07-29T11:35:17.139Z,487
2022-07-29T11:36:00.543Z,484
2022-07-29T11:36:48.084Z,488
2022-07-29T11:37:42.469Z,497
2022-07-29T11:38:32.221Z,477
2022-07-29T11:39:23.554Z,485
2022-07-29T11:40:15.345Z,486
2022-07-29T11:41:07.164Z,510
2022-07-29T11:42:03.101Z,492
2022-07-29T11:42:52.254Z,466
2022-07-29T11:43:42.629Z,465
2022-07-29T11:44:34.441Z,455
2022-07-29T11:45:41.902Z,453
2022-07-29T11:46:18.093Z,462
2022-07-29T11:47:09.940Z,428
2022-07-29T11:48:28.352Z,456
2022-07-29T11:48:53.602Z,448
2022-07-29T11:49:45.398Z,432
2022-07-29T11:50:37.228Z,443
2022-07-29T11:51:32.733Z,438
2022-07-29T11:52:20.877Z,434